sensor_id;sensor_type;location;lat;lon;timestamp;temperature;humidity
40077;DHT22;25777;47.824;18.982;2023-03-01T00:02:27;3.20;99.90
40077;DHT22;25777;47.824;18.982;2023-03-01T00:04:54;3.30;99.90
40077;DHT22;25777;47.824;18.982;2023-03-01T00:07:26;3.30;99.90
40077;DHT22;25777;47.824;18.982;2023-03-01T00:09:52;3.20;99.90
40077;DHT22;25777;47.824;18.982;2023-03-01T00:12:40;3.20;99.90
40077;DHT22;25777;47.824;18.982;2023-03-01T00:15:07;3.20;99.90
40077;DHT22;25777;47.824;18.982;2023-03-01T00:17:40;3.30;99.90
40077;DHT22;25777;47.824;18.982;2023-03-01T00:20:07;3.20;99.90
40077;DHT22;25777;47.824;18.982;2023-03-01T00:22:36;3.10;99.90
40077;DHT22;25777;47.824;18.982;2023-03-01T00:25:09;3.10;99.90
40077;DHT22;25777;47.824;18.982;2023-03-01T00:27:42;3.20;99.90
40077;DHT22;25777;47.824;18.982;2023-03-01T00:30:09;3.10;99.90
40077;DHT22;25777;47.824;18.982;2023-03-01T00:32:52;3.10;99.90
40077;DHT22;25777;47.824;18.982;2023-03-01T00:35:24;3.10;99.90
40077;DHT22;25777;47.824;18.982;2023-03-01T00:37:50;3.20;99.90
40077;DHT22;25777;47.824;18.982;2023-03-01T00:40:28;3.30;99.90
40077;DHT22;25777;47.824;18.982;2023-03-01T00:42:59;3.30;99.90
40077;DHT22;25777;47.824;18.982;2023-03-01T00:45:36;3.20;99.90
40077;DHT22;25777;47.824;18.982;2023-03-01T00:48:01;3.10;99.90
40077;DHT22;25777;47.824;18.982;2023-03-01T00:50:27;3.10;99.90
40077;DHT22;25777;47.824;18.982;2023-03-01T00:53:02;3.10;99.90
40077;DHT22;25777;47.824;18.982;2023-03-01T00:55:44;3.10;99.90
40077;DHT22;25777;47.824;18.982;2023-03-01T00:58:12;3.10;99.90
40077;DHT22;25777;47.824;18.982;2023-03-01T01:00:45;3.10;99.90
40077;DHT22;25777;47.824;18.982;2023-03-01T01:03:14;3.10;99.90
40077;DHT22;25777;47.824;18.982;2023-03-01T01:05:40;3.20;99.90
40077;DHT22;25777;47.824;18.982;2023-03-01T01:08:07;3.20;99.90
40077;DHT22;25777;47.824;18.982;2023-03-01T01:10:47;3.20;99.90
40077;DHT22;25777;47.824;18.982;2023-03-01T01:13:13;3.20;99.90
40077;DHT22;25777;47.824;18.982;2023-03-01T01:15:40;3.20;99.90
40077;DHT22;25777;47.824;18.982;2023-03-01T01:18:08;3.20;99.90
40077;DHT22;25777;47.824;18.982;2023-03-01T01:21:02;3.30;99.90
40077;DHT22;25777;47.824;18.982;2023-03-01T01:23:41;3.20;99.90
40077;DHT22;25777;47.824;18.982;2023-03-01T01:26:32;3.40;99.90
40077;DHT22;25777;47.824;18.982;2023-03-01T01:28:59;3.50;99.90
40077;DHT22;25777;47.824;18.982;2023-03-01T01:31:27;3.50;99.90
40077;DHT22;25777;47.824;18.982;2023-03-01T01:33:56;3.40;99.90
40077;DHT22;25777;47.824;18.982;2023-03-01T01:36:47;3.40;99.90
40077;DHT22;25777;47.824;18.982;2023-03-01T01:39:16;3.50;99.90
40077;DHT22;25777;47.824;18.982;2023-03-01T01:41:43;3.50;99.90
40077;DHT22;25777;47.824;18.982;2023-03-01T01:44:17;3.50;99.90
40077;DHT22;25777;47.824;18.982;2023-03-01T01:46:46;3.50;99.90
40077;DHT22;25777;47.824;18.982;2023-03-01T01:49:37;3.40;99.90
40077;DHT22;25777;47.824;18.982;2023-03-01T01:52:14;3.40;99.90
40077;DHT22;25777;47.824;18.982;2023-03-01T01:54:58;3.40;99.90
40077;DHT22;25777;47.824;18.982;2023-03-01T01:57:43;3.30;99.90
40077;DHT22;25777;47.824;18.982;2023-03-01T02:00:24;3.20;99.90
40077;DHT22;25777;47.824;18.982;2023-03-01T02:03:02;3.20;99.90
40077;DHT22;25777;47.824;18.982;2023-03-01T02:11:34;3.10;99.90
40077;DHT22;25777;47.824;18.982;2023-03-01T02:14:06;3.10;99.90
40077;DHT22;25777;47.824;18.982;2023-03-01T02:16:32;3.10;99.90
40077;DHT22;25777;47.824;18.982;2023-03-01T02:19:24;3.00;99.90
40077;DHT22;25777;47.824;18.982;2023-03-01T02:26:00;2.90;99.90
40077;DHT22;25777;47.824;18.982;2023-03-01T02:31:09;2.90;99.90
40077;DHT22;25777;47.824;18.982;2023-03-01T02:33:59;2.90;99.90
40077;DHT22;25777;47.824;18.982;2023-03-01T02:36:30;2.80;99.90
40077;DHT22;25777;47.824;18.982;2023-03-01T02:38:59;2.80;99.90
40077;DHT22;25777;47.824;18.982;2023-03-01T02:41:28;2.90;99.90
40077;DHT22;25777;47.824;18.982;2023-03-01T02:44:04;2.90;99.90
40077;DHT22;25777;47.824;18.982;2023-03-01T02:46:43;2.90;99.90
40077;DHT22;25777;47.824;18.982;2023-03-01T02:49:22;2.80;99.90
40077;DHT22;25777;47.824;18.982;2023-03-01T02:55:16;2.80;99.90
40077;DHT22;25777;47.824;18.982;2023-03-01T02:57:45;2.80;99.90
40077;DHT22;25777;47.824;18.982;2023-03-01T03:00:26;2.90;99.90
40077;DHT22;25777;47.824;18.982;2023-03-01T03:02:55;2.90;99.90
40077;DHT22;25777;47.824;18.982;2023-03-01T03:05:34;2.80;99.90
40077;DHT22;25777;47.824;18.982;2023-03-01T03:08:03;2.80;99.90
40077;DHT22;25777;47.824;18.982;2023-03-01T03:10:34;2.80;99.90
40077;DHT22;25777;47.824;18.982;2023-03-01T03:13:04;2.70;99.90
40077;DHT22;25777;47.824;18.982;2023-03-01T03:15:37;2.80;99.90
40077;DHT22;25777;47.824;18.982;2023-03-01T03:18:08;2.80;99.90
40077;DHT22;25777;47.824;18.982;2023-03-01T03:20:43;2.80;99.90
40077;DHT22;25777;47.824;18.982;2023-03-01T03:23:10;2.70;99.90
40077;DHT22;25777;47.824;18.982;2023-03-01T03:25:51;2.70;99.90
40077;DHT22;25777;47.824;18.982;2023-03-01T03:28:28;2.80;99.90
40077;DHT22;25777;47.824;18.982;2023-03-01T03:31:02;2.90;99.90
40077;DHT22;25777;47.824;18.982;2023-03-01T03:33:34;2.80;99.90
40077;DHT22;25777;47.824;18.982;2023-03-01T03:36:06;2.90;99.90
40077;DHT22;25777;47.824;18.982;2023-03-01T03:38:39;2.80;99.90
40077;DHT22;25777;47.824;18.982;2023-03-01T03:41:07;2.80;99.90
40077;DHT22;25777;47.824;18.982;2023-03-01T03:43:37;2.90;99.90
40077;DHT22;25777;47.824;18.982;2023-03-01T03:46:11;2.80;99.90
40077;DHT22;25777;47.824;18.982;2023-03-01T03:48:45;2.80;99.90
40077;DHT22;25777;47.824;18.982;2023-03-01T03:51:15;2.70;99.90
40077;DHT22;25777;47.824;18.982;2023-03-01T03:53:43;2.70;99.90
40077;DHT22;25777;47.824;18.982;2023-03-01T03:56:18;2.80;99.90
40077;DHT22;25777;47.824;18.982;2023-03-01T03:58:46;2.80;99.90
40077;DHT22;25777;47.824;18.982;2023-03-01T04:01:25;2.80;99.90
40077;DHT22;25777;47.824;18.982;2023-03-01T04:04:02;2.80;99.90
40077;DHT22;25777;47.824;18.982;2023-03-01T04:06:40;2.80;99.90
40077;DHT22;25777;47.824;18.982;2023-03-01T04:09:10;2.80;99.90
40077;DHT22;25777;47.824;18.982;2023-03-01T04:11:42;2.70;99.90
40077;DHT22;25777;47.824;18.982;2023-03-01T04:14:24;2.90;99.90
40077;DHT22;25777;47.824;18.982;2023-03-01T04:17:06;2.90;99.90
40077;DHT22;25777;47.824;18.982;2023-03-01T04:19:33;2.90;99.90
40077;DHT22;25777;47.824;18.982;2023-03-01T04:22:06;2.90;99.90
40077;DHT22;25777;47.824;18.982;2023-03-01T04:24:43;2.90;99.90
40077;DHT22;25777;47.824;18.982;2023-03-01T04:27:36;2.90;99.90
40077;DHT22;25777;47.824;18.982;2023-03-01T04:30:10;2.90;99.90
40077;DHT22;25777;47.824;18.982;2023-03-01T04:32:36;2.90;99.90
40077;DHT22;25777;47.824;18.982;2023-03-01T04:35:02;2.90;99.90
40077;DHT22;25777;47.824;18.982;2023-03-01T04:37:30;2.90;99.90
40077;DHT22;25777;47.824;18.982;2023-03-01T04:39:55;2.80;99.90
40077;DHT22;25777;47.824;18.982;2023-03-01T04:42:23;2.90;99.90
40077;DHT22;25777;47.824;18.982;2023-03-01T04:44:59;2.80;99.90
40077;DHT22;25777;47.824;18.982;2023-03-01T04:47:27;2.90;99.90
40077;DHT22;25777;47.824;18.982;2023-03-01T04:49:53;2.80;99.90
40077;DHT22;25777;47.824;18.982;2023-03-01T04:52:24;2.80;99.90
40077;DHT22;25777;47.824;18.982;2023-03-01T04:54:51;2.80;99.90
40077;DHT22;25777;47.824;18.982;2023-03-01T04:57:22;2.90;99.90
40077;DHT22;25777;47.824;18.982;2023-03-01T04:59:56;3.00;99.90
40077;DHT22;25777;47.824;18.982;2023-03-01T05:02:23;3.00;99.90
40077;DHT22;25777;47.824;18.982;2023-03-01T05:04:50;3.00;99.90
40077;DHT22;25777;47.824;18.982;2023-03-01T05:07:26;3.00;99.90
40077;DHT22;25777;47.824;18.982;2023-03-01T05:09:53;3.00;99.90
40077;DHT22;25777;47.824;18.982;2023-03-01T05:12:27;3.00;99.90
40077;DHT22;25777;47.824;18.982;2023-03-01T05:14:53;3.10;99.90
40077;DHT22;25777;47.824;18.982;2023-03-01T05:17:20;3.10;99.90
40077;DHT22;25777;47.824;18.982;2023-03-01T05:20:06;3.10;99.90
40077;DHT22;25777;47.824;18.982;2023-03-01T05:22:35;3.10;99.90
40077;DHT22;25777;47.824;18.982;2023-03-01T05:25:03;3.10;99.90
40077;DHT22;25777;47.824;18.982;2023-03-01T05:27:31;3.10;99.90
40077;DHT22;25777;47.824;18.982;2023-03-01T05:29:59;3.10;99.90
40077;DHT22;25777;47.824;18.982;2023-03-01T05:32:52;3.10;99.90
40077;DHT22;25777;47.824;18.982;2023-03-01T05:35:22;3.10;99.90
40077;DHT22;25777;47.824;18.982;2023-03-01T05:38:24;3.20;99.90
40077;DHT22;25777;47.824;18.982;2023-03-01T05:41:04;3.20;99.90
40077;DHT22;25777;47.824;18.982;2023-03-01T05:43:31;3.20;99.90
40077;DHT22;25777;47.824;18.982;2023-03-01T05:46:10;3.20;99.90
40077;DHT22;25777;47.824;18.982;2023-03-01T05:48:39;3.20;99.90
40077;DHT22;25777;47.824;18.982;2023-03-01T05:51:05;3.20;99.90
40077;DHT22;25777;47.824;18.982;2023-03-01T05:53:48;3.20;99.90
40077;DHT22;25777;47.824;18.982;2023-03-01T05:56:16;3.20;99.90
40077;DHT22;25777;47.824;18.982;2023-03-01T05:58:42;3.20;99.90
40077;DHT22;25777;47.824;18.982;2023-03-01T06:01:13;3.20;99.90
40077;DHT22;25777;47.824;18.982;2023-03-01T06:03:43;3.10;99.90
40077;DHT22;25777;47.824;18.982;2023-03-01T06:06:16;3.10;99.90
40077;DHT22;25777;47.824;18.982;2023-03-01T06:08:43;3.20;99.90
40077;DHT22;25777;47.824;18.982;2023-03-01T06:11:10;3.30;99.90
40077;DHT22;25777;47.824;18.982;2023-03-01T06:13:40;3.30;99.90
40077;DHT22;25777;47.824;18.982;2023-03-01T06:16:12;3.40;99.90
40077;DHT22;25777;47.824;18.982;2023-03-01T06:18:49;3.40;99.90
40077;DHT22;25777;47.824;18.982;2023-03-01T06:21:32;3.40;99.90
40077;DHT22;25777;47.824;18.982;2023-03-01T06:24:00;3.40;99.90
40077;DHT22;25777;47.824;18.982;2023-03-01T06:26:37;3.50;99.90
40077;DHT22;25777;47.824;18.982;2023-03-01T06:29:04;3.60;99.90
40077;DHT22;25777;47.824;18.982;2023-03-01T06:31:56;3.60;99.90
40077;DHT22;25777;47.824;18.982;2023-03-01T06:34:36;3.60;99.90
40077;DHT22;25777;47.824;18.982;2023-03-01T06:37:12;3.60;99.90
40077;DHT22;25777;47.824;18.982;2023-03-01T06:39:44;3.70;99.90
40077;DHT22;25777;47.824;18.982;2023-03-01T06:42:12;3.80;99.90
40077;DHT22;25777;47.824;18.982;2023-03-01T06:44:49;3.70;99.90
40077;DHT22;25777;47.824;18.982;2023-03-01T06:47:21;3.70;99.90
40077;DHT22;25777;47.824;18.982;2023-03-01T06:49:55;3.80;99.90
40077;DHT22;25777;47.824;18.982;2023-03-01T06:52:31;3.80;99.90
40077;DHT22;25777;47.824;18.982;2023-03-01T06:55:01;3.80;99.90
40077;DHT22;25777;47.824;18.982;2023-03-01T06:57:28;3.90;99.90
40077;DHT22;25777;47.824;18.982;2023-03-01T07:00:02;3.80;99.80
40077;DHT22;25777;47.824;18.982;2023-03-01T07:02:39;3.90;99.90
40077;DHT22;25777;47.824;18.982;2023-03-01T07:05:07;3.90;99.90
40077;DHT22;25777;47.824;18.982;2023-03-01T07:07:34;3.90;99.50
40077;DHT22;25777;47.824;18.982;2023-03-01T07:10:00;3.90;99.90
40077;DHT22;25777;47.824;18.982;2023-03-01T07:12:26;4.10;99.90
40077;DHT22;25777;47.824;18.982;2023-03-01T07:14:52;4.10;99.70
40077;DHT22;25777;47.824;18.982;2023-03-01T07:17:26;4.20;98.70
40077;DHT22;25777;47.824;18.982;2023-03-01T07:19:53;4.30;98.90
40077;DHT22;25777;47.824;18.982;2023-03-01T07:22:23;4.30;98.50
40077;DHT22;25777;47.824;18.982;2023-03-01T07:24:50;4.30;98.90
40077;DHT22;25777;47.824;18.982;2023-03-01T07:27:16;4.30;98.60
40077;DHT22;25777;47.824;18.982;2023-03-01T07:29:41;4.30;98.10
40077;DHT22;25777;47.824;18.982;2023-03-01T07:32:10;4.30;98.80
40077;DHT22;25777;47.824;18.982;2023-03-01T07:34:38;4.40;98.00
40077;DHT22;25777;47.824;18.982;2023-03-01T07:37:07;4.40;97.70
40077;DHT22;25777;47.824;18.982;2023-03-01T07:39:35;4.50;98.20
40077;DHT22;25777;47.824;18.982;2023-03-01T07:42:01;4.40;97.20
40077;DHT22;25777;47.824;18.982;2023-03-01T07:44:33;4.50;97.40
40077;DHT22;25777;47.824;18.982;2023-03-01T07:47:03;4.50;97.80
40077;DHT22;25777;47.824;18.982;2023-03-01T07:49:48;4.60;97.10
40077;DHT22;25777;47.824;18.982;2023-03-01T07:52:14;4.70;97.60
40077;DHT22;25777;47.824;18.982;2023-03-01T07:54:43;4.70;97.50
40077;DHT22;25777;47.824;18.982;2023-03-01T07:57:17;4.80;96.90
40077;DHT22;25777;47.824;18.982;2023-03-01T07:59:43;4.90;97.50
40077;DHT22;25777;47.824;18.982;2023-03-01T08:02:11;4.90;96.10
40077;DHT22;25777;47.824;18.982;2023-03-01T08:04:38;5.00;95.20
40077;DHT22;25777;47.824;18.982;2023-03-01T08:07:10;5.10;95.10
40077;DHT22;25777;47.824;18.982;2023-03-01T08:09:43;5.20;95.00
40077;DHT22;25777;47.824;18.982;2023-03-01T08:12:13;5.30;94.20
40077;DHT22;25777;47.824;18.982;2023-03-01T08:14:49;5.30;94.90
40077;DHT22;25777;47.824;18.982;2023-03-01T08:17:35;5.30;93.50
40077;DHT22;25777;47.824;18.982;2023-03-01T08:20:06;5.40;93.50
40077;DHT22;25777;47.824;18.982;2023-03-01T08:22:35;5.40;93.10
40077;DHT22;25777;47.824;18.982;2023-03-01T08:25:01;5.40;92.70
40077;DHT22;25777;47.824;18.982;2023-03-01T08:27:40;5.50;93.00
40077;DHT22;25777;47.824;18.982;2023-03-01T08:30:13;5.70;93.60
40077;DHT22;25777;47.824;18.982;2023-03-01T08:32:40;5.80;93.00
40077;DHT22;25777;47.824;18.982;2023-03-01T08:35:12;5.80;93.00
40077;DHT22;25777;47.824;18.982;2023-03-01T08:37:42;6.00;93.80
40077;DHT22;25777;47.824;18.982;2023-03-01T08:40:15;6.10;90.70
40077;DHT22;25777;47.824;18.982;2023-03-01T08:42:46;6.30;92.20
40077;DHT22;25777;47.824;18.982;2023-03-01T08:45:36;6.40;91.50
40077;DHT22;25777;47.824;18.982;2023-03-01T08:48:11;6.40;91.90
40077;DHT22;25777;47.824;18.982;2023-03-01T08:50:37;6.30;90.70
40077;DHT22;25777;47.824;18.982;2023-03-01T08:53:07;6.40;91.30
40077;DHT22;25777;47.824;18.982;2023-03-01T08:55:42;6.60;90.00
40077;DHT22;25777;47.824;18.982;2023-03-01T08:58:39;6.60;91.40
40077;DHT22;25777;47.824;18.982;2023-03-01T09:01:12;7.10;90.20
40077;DHT22;25777;47.824;18.982;2023-03-01T09:03:45;7.00;87.30
40077;DHT22;25777;47.824;18.982;2023-03-01T09:06:11;7.20;88.20
40077;DHT22;25777;47.824;18.982;2023-03-01T09:08:46;7.50;90.40
40077;DHT22;25777;47.824;18.982;2023-03-01T09:11:17;7.60;84.90
40077;DHT22;25777;47.824;18.982;2023-03-01T09:13:44;7.90;83.60
40077;DHT22;25777;47.824;18.982;2023-03-01T09:16:14;7.50;81.80
40077;DHT22;25777;47.824;18.982;2023-03-01T09:18:44;7.40;81.10
40077;DHT22;25777;47.824;18.982;2023-03-01T09:24:12;8.60;84.40
40077;DHT22;25777;47.824;18.982;2023-03-01T09:26:41;8.30;78.30
40077;DHT22;25777;47.824;18.982;2023-03-01T09:29:15;8.30;78.70
40077;DHT22;25777;47.824;18.982;2023-03-01T09:31:44;8.60;80.00
40077;DHT22;25777;47.824;18.982;2023-03-01T09:34:15;8.70;78.40
40077;DHT22;25777;47.824;18.982;2023-03-01T09:37:03;9.00;80.30
40077;DHT22;25777;47.824;18.982;2023-03-01T09:39:33;9.30;76.10
40077;DHT22;25777;47.824;18.982;2023-03-01T09:42:13;9.20;77.70
40077;DHT22;25777;47.824;18.982;2023-03-01T09:50:20;9.80;75.10
40077;DHT22;25777;47.824;18.982;2023-03-01T09:53:16;9.40;74.20
40077;DHT22;25777;47.824;18.982;2023-03-01T09:58:51;9.80;74.90
40077;DHT22;25777;47.824;18.982;2023-03-01T10:01:48;10.30;71.90
40077;DHT22;25777;47.824;18.982;2023-03-01T10:09:43;9.90;69.80
40077;DHT22;25777;47.824;18.982;2023-03-01T10:12:14;10.00;74.60
40077;DHT22;25777;47.824;18.982;2023-03-01T10:18:06;10.90;71.30
40077;DHT22;25777;47.824;18.982;2023-03-01T10:21:00;10.80;71.70
40077;DHT22;25777;47.824;18.982;2023-03-01T10:23:30;11.40;71.50
40077;DHT22;25777;47.824;18.982;2023-03-01T10:29:34;10.60;73.50
40077;DHT22;25777;47.824;18.982;2023-03-01T10:35:32;11.60;68.90
40077;DHT22;25777;47.824;18.982;2023-03-01T10:38:16;11.60;68.60
40077;DHT22;25777;47.824;18.982;2023-03-01T10:41:06;11.60;68.60
40077;DHT22;25777;47.824;18.982;2023-03-01T10:43:52;11.30;66.90
40077;DHT22;25777;47.824;18.982;2023-03-01T10:46:59;11.50;71.50
40077;DHT22;25777;47.824;18.982;2023-03-01T10:50:03;12.30;67.80
40077;DHT22;25777;47.824;18.982;2023-03-01T10:52:36;11.50;68.40
40077;DHT22;25777;47.824;18.982;2023-03-01T10:55:29;12.00;67.60
40077;DHT22;25777;47.824;18.982;2023-03-01T10:58:30;12.30;68.20
40077;DHT22;25777;47.824;18.982;2023-03-01T11:01:26;12.00;67.50
40077;DHT22;25777;47.824;18.982;2023-03-01T11:06:33;12.20;64.40
40077;DHT22;25777;47.824;18.982;2023-03-01T11:09:22;12.00;67.20
40077;DHT22;25777;47.824;18.982;2023-03-01T11:11:55;11.70;67.10
40077;DHT22;25777;47.824;18.982;2023-03-01T11:14:35;11.50;66.10
40077;DHT22;25777;47.824;18.982;2023-03-01T11:17:28;11.70;68.40
40077;DHT22;25777;47.824;18.982;2023-03-01T11:23:13;11.70;66.90
40077;DHT22;25777;47.824;18.982;2023-03-01T11:25:43;11.50;67.70
40077;DHT22;25777;47.824;18.982;2023-03-01T11:28:25;12.70;67.00
40077;DHT22;25777;47.824;18.982;2023-03-01T11:31:12;13.10;63.50
40077;DHT22;25777;47.824;18.982;2023-03-01T11:34:01;13.00;64.10
40077;DHT22;25777;47.824;18.982;2023-03-01T11:36:43;11.50;66.30
40077;DHT22;25777;47.824;18.982;2023-03-01T11:45:11;12.50;67.60
40077;DHT22;25777;47.824;18.982;2023-03-01T11:50:55;12.60;64.50
40077;DHT22;25777;47.824;18.982;2023-03-01T11:56:31;12.60;64.10
40077;DHT22;25777;47.824;18.982;2023-03-01T12:08:56;11.90;71.30
40077;DHT22;25777;47.824;18.982;2023-03-01T12:15:29;12.40;66.60
40077;DHT22;25777;47.824;18.982;2023-03-01T12:20:52;12.40;69.20
40077;DHT22;25777;47.824;18.982;2023-03-01T12:29:46;12.20;66.00
40077;DHT22;25777;47.824;18.982;2023-03-01T12:32:43;12.10;66.20
40077;DHT22;25777;47.824;18.982;2023-03-01T12:35:40;11.80;65.30
40077;DHT22;25777;47.824;18.982;2023-03-01T12:38:37;11.80;66.70
40077;DHT22;25777;47.824;18.982;2023-03-01T12:44:26;11.60;65.70
40077;DHT22;25777;47.824;18.982;2023-03-01T12:49:51;11.30;68.70
40077;DHT22;25777;47.824;18.982;2023-03-01T12:52:55;11.50;67.30
40077;DHT22;25777;47.824;18.982;2023-03-01T12:55:41;11.60;67.90
40077;DHT22;25777;47.824;18.982;2023-03-01T12:58:39;11.40;66.40
40077;DHT22;25777;47.824;18.982;2023-03-01T13:01:30;11.30;68.10
40077;DHT22;25777;47.824;18.982;2023-03-01T13:17:53;11.40;69.10
40077;DHT22;25777;47.824;18.982;2023-03-01T13:26:15;11.60;68.20
40077;DHT22;25777;47.824;18.982;2023-03-01T13:34:01;11.90;68.10
40077;DHT22;25777;47.824;18.982;2023-03-01T13:42:40;11.90;65.40
40077;DHT22;25777;47.824;18.982;2023-03-01T13:45:40;12.40;65.20
40077;DHT22;25777;47.824;18.982;2023-03-01T13:48:35;12.50;65.50
40077;DHT22;25777;47.824;18.982;2023-03-01T13:51:05;12.50;66.00
40077;DHT22;25777;47.824;18.982;2023-03-01T13:53:47;12.40;66.90
40077;DHT22;25777;47.824;18.982;2023-03-01T13:59:21;11.90;66.90
40077;DHT22;25777;47.824;18.982;2023-03-01T14:02:01;11.70;67.70
40077;DHT22;25777;47.824;18.982;2023-03-01T14:04:58;11.60;68.10
40077;DHT22;25777;47.824;18.982;2023-03-01T14:07:28;11.40;67.60
40077;DHT22;25777;47.824;18.982;2023-03-01T14:13:20;11.40;68.70
40077;DHT22;25777;47.824;18.982;2023-03-01T14:16:10;11.40;68.70
40077;DHT22;25777;47.824;18.982;2023-03-01T14:18:49;11.20;68.90
40077;DHT22;25777;47.824;18.982;2023-03-01T14:21:22;10.90;70.30
40077;DHT22;25777;47.824;18.982;2023-03-01T14:23:54;10.80;69.50
40077;DHT22;25777;47.824;18.982;2023-03-01T14:26:35;10.90;70.40
40077;DHT22;25777;47.824;18.982;2023-03-01T14:29:37;10.60;71.90
40077;DHT22;25777;47.824;18.982;2023-03-01T14:32:17;10.70;71.80
40077;DHT22;25777;47.824;18.982;2023-03-01T14:34:47;10.40;72.00
40077;DHT22;25777;47.824;18.982;2023-03-01T14:37:33;10.40;73.80
40077;DHT22;25777;47.824;18.982;2023-03-01T14:40:24;10.30;75.10
40077;DHT22;25777;47.824;18.982;2023-03-01T14:42:52;10.50;72.70
40077;DHT22;25777;47.824;18.982;2023-03-01T14:45:19;10.60;72.00
40077;DHT22;25777;47.824;18.982;2023-03-01T14:47:46;10.40;73.30
40077;DHT22;25777;47.824;18.982;2023-03-01T14:50:35;10.40;74.40
40077;DHT22;25777;47.824;18.982;2023-03-01T14:53:05;10.40;72.30
40077;DHT22;25777;47.824;18.982;2023-03-01T14:55:37;10.40;75.80
40077;DHT22;25777;47.824;18.982;2023-03-01T14:58:15;10.40;71.50
40077;DHT22;25777;47.824;18.982;2023-03-01T15:01:03;10.20;74.60
40077;DHT22;25777;47.824;18.982;2023-03-01T15:03:49;10.00;76.10
40077;DHT22;25777;47.824;18.982;2023-03-01T15:06:36;9.90;75.80
40077;DHT22;25777;47.824;18.982;2023-03-01T15:09:03;9.90;78.00
40077;DHT22;25777;47.824;18.982;2023-03-01T15:11:33;9.80;78.40
40077;DHT22;25777;47.824;18.982;2023-03-01T15:14:36;9.60;79.10
40077;DHT22;25777;47.824;18.982;2023-03-01T15:17:12;9.40;81.30
40077;DHT22;25777;47.824;18.982;2023-03-01T15:19:48;9.10;85.30
40077;DHT22;25777;47.824;18.982;2023-03-01T15:22:16;8.80;82.50
40077;DHT22;25777;47.824;18.982;2023-03-01T15:24:48;8.80;84.30
40077;DHT22;25777;47.824;18.982;2023-03-01T15:27:25;8.70;85.30
40077;DHT22;25777;47.824;18.982;2023-03-01T15:30:02;8.60;85.00
40077;DHT22;25777;47.824;18.982;2023-03-01T15:32:35;8.60;85.90
40077;DHT22;25777;47.824;18.982;2023-03-01T15:35:35;8.50;87.60
40077;DHT22;25777;47.824;18.982;2023-03-01T15:38:23;8.40;86.90
40077;DHT22;25777;47.824;18.982;2023-03-01T15:40:57;8.30;88.60
40077;DHT22;25777;47.824;18.982;2023-03-01T15:43:45;8.20;88.20
40077;DHT22;25777;47.824;18.982;2023-03-01T15:46:35;8.30;88.60
40077;DHT22;25777;47.824;18.982;2023-03-01T15:52:21;8.10;89.40
40077;DHT22;25777;47.824;18.982;2023-03-01T15:54:58;8.20;89.90
40077;DHT22;25777;47.824;18.982;2023-03-01T15:57:27;7.80;90.80
40077;DHT22;25777;47.824;18.982;2023-03-01T15:59:56;7.70;91.50
40077;DHT22;25777;47.824;18.982;2023-03-01T16:02:23;7.60;90.60
40077;DHT22;25777;47.824;18.982;2023-03-01T16:04:50;7.60;91.10
40077;DHT22;25777;47.824;18.982;2023-03-01T16:07:21;7.50;92.30
40077;DHT22;25777;47.824;18.982;2023-03-01T16:09:47;7.40;92.10
40077;DHT22;25777;47.824;18.982;2023-03-01T16:12:19;7.40;92.40
40077;DHT22;25777;47.824;18.982;2023-03-01T16:14:51;7.10;93.60
40077;DHT22;25777;47.824;18.982;2023-03-01T16:17:18;7.00;92.90
40077;DHT22;25777;47.824;18.982;2023-03-01T16:19:46;7.00;93.60
40077;DHT22;25777;47.824;18.982;2023-03-01T16:22:12;6.90;93.40
40077;DHT22;25777;47.824;18.982;2023-03-01T16:24:39;6.80;94.00
40077;DHT22;25777;47.824;18.982;2023-03-01T16:27:13;6.70;94.50
40077;DHT22;25777;47.824;18.982;2023-03-01T16:29:49;6.50;95.20
40077;DHT22;25777;47.824;18.982;2023-03-01T16:32:17;6.40;96.00
40077;DHT22;25777;47.824;18.982;2023-03-01T16:35:08;6.20;96.00
40077;DHT22;25777;47.824;18.982;2023-03-01T16:37:35;6.10;97.10
40077;DHT22;25777;47.824;18.982;2023-03-01T16:40:16;6.20;97.00
40077;DHT22;25777;47.824;18.982;2023-03-01T16:42:58;6.10;97.30
40077;DHT22;25777;47.824;18.982;2023-03-01T16:45:34;5.90;98.10
40077;DHT22;25777;47.824;18.982;2023-03-01T16:48:08;5.80;98.20
40077;DHT22;25777;47.824;18.982;2023-03-01T16:50:38;5.90;98.50
40077;DHT22;25777;47.824;18.982;2023-03-01T16:53:05;5.90;98.40
40077;DHT22;25777;47.824;18.982;2023-03-01T16:55:32;5.60;98.80
40077;DHT22;25777;47.824;18.982;2023-03-01T16:57:58;5.60;99.40
40077;DHT22;25777;47.824;18.982;2023-03-01T17:00:26;5.70;99.40
40077;DHT22;25777;47.824;18.982;2023-03-01T17:02:53;5.60;99.70
40077;DHT22;25777;47.824;18.982;2023-03-01T17:05:21;5.40;99.90
40077;DHT22;25777;47.824;18.982;2023-03-01T17:07:50;5.30;99.90
40077;DHT22;25777;47.824;18.982;2023-03-01T17:10:16;5.30;99.90
40077;DHT22;25777;47.824;18.982;2023-03-01T17:12:48;5.20;99.90
40077;DHT22;25777;47.824;18.982;2023-03-01T17:15:27;4.90;99.90
40077;DHT22;25777;47.824;18.982;2023-03-01T17:17:59;4.80;99.90
40077;DHT22;25777;47.824;18.982;2023-03-01T17:20:28;4.80;99.90
40077;DHT22;25777;47.824;18.982;2023-03-01T17:23:02;4.70;99.90
40077;DHT22;25777;47.824;18.982;2023-03-01T17:25:31;4.50;99.90
40077;DHT22;25777;47.824;18.982;2023-03-01T17:28:00;4.50;99.90
40077;DHT22;25777;47.824;18.982;2023-03-01T17:30:31;4.50;99.90
40077;DHT22;25777;47.824;18.982;2023-03-01T17:32:57;4.30;99.90
40077;DHT22;25777;47.824;18.982;2023-03-01T17:35:23;4.20;99.90
40077;DHT22;25777;47.824;18.982;2023-03-01T17:38:17;4.30;99.90
40077;DHT22;25777;47.824;18.982;2023-03-01T17:40:43;4.10;99.90
40077;DHT22;25777;47.824;18.982;2023-03-01T17:43:14;4.30;99.90
40077;DHT22;25777;47.824;18.982;2023-03-01T17:45:44;4.30;99.90
40077;DHT22;25777;47.824;18.982;2023-03-01T17:48:29;4.20;99.90
40077;DHT22;25777;47.824;18.982;2023-03-01T17:50:56;3.90;99.90
40077;DHT22;25777;47.824;18.982;2023-03-01T17:53:34;3.90;99.90
40077;DHT22;25777;47.824;18.982;2023-03-01T17:56:02;3.80;99.90
40077;DHT22;25777;47.824;18.982;2023-03-01T17:58:31;3.60;99.90
40077;DHT22;25777;47.824;18.982;2023-03-01T18:01:17;3.50;99.90
40077;DHT22;25777;47.824;18.982;2023-03-01T18:03:46;3.50;99.90
40077;DHT22;25777;47.824;18.982;2023-03-01T18:06:18;3.40;99.90
40077;DHT22;25777;47.824;18.982;2023-03-01T18:08:47;3.40;99.90
40077;DHT22;25777;47.824;18.982;2023-03-01T18:11:16;3.20;99.90
40077;DHT22;25777;47.824;18.982;2023-03-01T18:13:43;3.30;99.90
40077;DHT22;25777;47.824;18.982;2023-03-01T18:16:13;3.20;99.90
40077;DHT22;25777;47.824;18.982;2023-03-01T18:18:42;3.10;99.90
40077;DHT22;25777;47.824;18.982;2023-03-01T18:21:10;3.10;99.90
40077;DHT22;25777;47.824;18.982;2023-03-01T18:23:51;3.20;99.90
40077;DHT22;25777;47.824;18.982;2023-03-01T18:26:23;3.00;99.90